Time;durP1;ratioP1;P1;durP2;ratioP2;P2;SDS_P1;SDS_P2;PMS_P1;PMS_P2;Temp;Humidity;BMP_temperature;BMP_pressure;BME280_temperature;BME280_humidity;BME280_pressure;Samples;Min_cycle;Max_cycle;Signal;HPM_P1;HPM_P2
2021/12/05 00:24:09;;;;;;;334.48;192.50;;;77.30;2227.20;;;;;;5020090;28;20041;-60
2021/12/05 00:26:35;;;;;;;329.35;194.23;;;77.30;2227.20;;;;;;5002542;28;20034;-54
2021/12/05 01:08:36;;;;;;;171.48;93.15;;;77.60;2227.20;;;;;;4998821;28;20134;-58
2021/12/05 01:15:56;;;;;;;226.43;114.22;;;102.40;2227.20;;;;;;4997733;28;20045;-59
2021/12/05 01:18:23;;;;;;;221.80;105.25;;;102.40;2227.20;;;;;;4999431;28;20042;-63
2021/12/05 01:20:55;;;;;;;223.52;126.88;;;102.50;2227.20;;;;;;5001092;28;20145;-61
2021/12/05 01:31:24;;;;;;;182.95;102.65;;;77.70;2227.20;;;;;;4979265;28;20084;-54
2021/12/05 01:50:59;;;;;;;69.03;42.17;;;102.50;2227.20;;;;;;4940427;29;20106;-62
2021/12/05 01:58:44;;;;;;;59.83;36.55;;;77.40;2227.20;;;;;;4939940;29;20063;-55
2021/12/05 02:34:39;;;;;;;65.95;38.78;;;102.50;2227.20;;;;;;4950613;29;20042;-62
2021/12/05 02:39:55;;;;;;;82.03;41.83;;;102.60;2227.20;;;;;;4912370;29;20040;-61
2021/12/05 02:42:35;;;;;;;79.55;38.88;;;102.70;2227.20;;;;;;4969814;28;20366;-60
2021/12/05 02:45:04;;;;;;;50.50;28.77;;;102.80;2227.20;;;;;;4969815;28;20054;-63
2021/12/05 02:47:32;;;;;;;116.65;74.68;;;102.80;2227.20;;;;;;4969692;28;20031;-61
2021/12/05 02:50:00;;;;;;;96.90;60.17;;;102.60;2227.20;;;;;;4969731;28;20034;-60
2021/12/05 02:52:32;;;;;;;122.68;71.57;;;102.60;2227.20;;;;;;4969659;28;20058;-57
2021/12/05 02:55:09;;;;;;;128.35;64.93;;;102.60;2227.20;;;;;;4969647;28;20043;-61
2021/12/05 03:00:08;;;;;;;119.90;66.47;;;102.80;2227.20;;;;;;4969626;28;20042;-61
2021/12/05 03:02:39;;;;;;;159.50;87.43;;;102.80;2227.20;;;;;;4969540;28;20023;-63
2021/12/05 03:05:10;;;;;;;65.60;39.22;;;102.80;2227.20;;;;;;4969366;28;20030;-62
2021/12/05 03:07:40;;;;;;;65.75;39.17;;;102.90;2227.20;;;;;;4969310;28;20056;-55
2021/12/05 03:10:07;;;;;;;72.80;43.88;;;102.90;2227.20;;;;;;4969144;28;20591;-63
2021/12/05 03:12:38;;;;;;;100.72;55.50;;;103.00;2227.20;;;;;;4968671;28;20058;-63
2021/12/05 03:15:10;;;;;;;86.43;50.13;;;103.10;2227.20;;;;;;4969465;28;20035;-62
2021/12/05 03:17:36;;;;;;;47.13;29.20;;;103.10;2227.20;;;;;;5004354;28;20077;-63
2021/12/05 03:20:03;;;;;;;70.38;45.35;;;103.10;2227.20;;;;;;5010530;28;20037;-61
2021/12/05 03:22:29;;;;;;;51.28;30.77;;;102.90;2227.20;;;;;;5010036;28;20061;-63
2021/12/05 03:24:55;;;;;;;44.08;26.58;;;102.90;2227.20;;;;;;5010467;28;20069;-61
2021/12/05 03:27:21;;;;;;;73.47;41.88;;;103.10;2227.20;;;;;;5010420;28;20084;-61
2021/12/05 03:29:47;;;;;;;76.05;47.65;;;103.10;2227.20;;;;;;5010355;28;20057;-62
2021/12/05 03:32:12;;;;;;;64.22;38.42;;;103.00;2227.20;;;;;;5010543;28;20404;-62
2021/12/05 03:34:38;;;;;;;44.72;26.73;;;103.10;2227.20;;;;;;5010407;28;20419;-61
2021/12/05 03:37:05;;;;;;;72.78;43.00;;;102.80;2227.20;;;;;;5010399;28;20112;-60
2021/12/05 03:39:31;;;;;;;73.65;42.90;;;102.80;2227.20;;;;;;5010392;28;20110;-62
2021/12/05 03:41:58;;;;;;;76.43;41.17;;;102.80;2227.20;;;;;;5010278;28;20116;-62
2021/12/05 03:44:26;;;;;;;91.90;48.75;;;102.90;2227.20;;;;;;5010381;28;20105;-62
2021/12/05 03:46:53;;;;;;;75.88;42.85;;;103.10;2227.20;;;;;;5010305;28;20057;-62
2021/12/05 03:49:21;;;;;;;95.10;49.72;;;103.20;2227.20;;;;;;5009942;28;20073;-63
2021/12/05 03:51:52;;;;;;;114.55;56.92;;;103.30;2227.20;;;;;;5010046;28;20169;-61
2021/12/05 03:54:18;;;;;;;59.20;32.40;;;103.30;2227.20;;;;;;5010089;28;20065;-62
2021/12/05 03:56:46;;;;;;;54.72;30.35;;;103.30;2227.20;;;;;;5010083;28;20488;-62
2021/12/05 03:59:12;;;;;;;166.38;79.63;;;128.00;2252.80;;;;;;5010088;28;20037;-62
2021/12/05 04:01:39;;;;;;;321.83;163.93;;;128.00;2252.80;;;;;;5009837;28;20029;-62
2021/12/05 04:04:06;;;;;;;205.60;95.63;;;128.20;2252.80;;;;;;5009809;28;20022;-61
2021/12/05 04:06:33;;;;;;;134.63;62.75;;;128.10;2252.80;;;;;;4992751;28;20443;-61
2021/12/05 04:09:01;;;;;;;64.93;36.03;;;128.30;2252.80;;;;;;5009842;28;20041;-61
2021/12/05 04:11:35;;;;;;;60.10;33.15;;;128.30;2252.80;;;;;;5009884;28;20380;-61
2021/12/05 04:14:03;;;;;;;85.00;48.13;;;128.40;2252.80;;;;;;5010085;28;20050;-61
2021/12/05 04:16:29;;;;;;;123.80;67.50;;;128.40;2252.80;;;;;;5009845;28;20030;-62
2021/12/05 04:18:56;;;;;;;121.38;71.72;;;128.30;2252.80;;;;;;5009986;28;20071;-60
2021/12/05 04:21:22;;;;;;;91.43;53.60;;;128.20;2252.80;;;;;;5009903;28;20416;-62
2021/12/05 04:23:48;;;;;;;30.50;19.58;;;128.30;2252.80;;;;;;5010823;28;20140;-63
2021/12/05 04:26:16;;;;;;;24.25;12.93;;;103.20;2227.20;;;;;;5013581;28;20057;-61
2021/12/05 04:28:43;;;;;;;25.77;14.55;;;103.00;2227.20;;;;;;4995962;28;20033;-63
2021/12/05 04:31:09;;;;;;;38.63;22.85;;;103.00;2227.20;;;;;;5013218;28;20022;-61
2021/12/05 04:33:37;;;;;;;45.58;22.48;;;103.10;2227.20;;;;;;5013200;28;20034;-59
2021/12/05 04:36:05;;;;;;;46.72;25.92;;;103.30;2227.20;;;;;;5013395;28;20018;-61
2021/12/05 04:38:31;;;;;;;36.08;18.55;;;128.00;2252.80;;;;;;5013366;28;20113;-62
2021/12/05 04:40:57;;;;;;;22.77;13.90;;;128.10;2252.80;;;;;;5013244;28;20380;-63
2021/12/05 04:43:23;;;;;;;22.92;12.32;;;128.20;2252.80;;;;;;5013619;28;20030;-63
2021/12/05 04:45:49;;;;;;;40.75;24.13;;;128.20;2252.80;;;;;;5013223;28;20116;-62
2021/12/05 04:48:16;;;;;;;40.60;20.30;;;128.20;2252.80;;;;;;5013033;28;20040;-57
2021/12/05 04:50:42;;;;;;;26.00;15.50;;;128.30;2252.80;;;;;;5013139;28;20026;-62
2021/12/05 04:53:08;;;;;;;23.25;12.40;;;103.20;2227.20;;;;;;5012792;28;20396;-60
2021/12/05 04:55:34;;;;;;;22.23;13.40;;;103.20;2227.20;;;;;;5012904;28;20480;-62
2021/12/05 04:58:01;;;;;;;18.45;10.45;;;128.00;2252.80;;;;;;4995135;28;20439;-62
2021/12/05 05:00:37;;;;;;;27.10;15.95;;;128.10;2252.80;;;;;;5012797;28;20109;-61
2021/12/05 05:03:04;;;;;;;41.83;22.50;;;128.00;2252.80;;;;;;5012893;28;20117;-63
2021/12/05 05:05:31;;;;;;;37.30;22.58;;;128.20;2252.80;;;;;;5012549;28;20403;-62
2021/12/05 05:07:58;;;;;;;24.95;15.05;;;128.30;2252.80;;;;;;5012604;28;20045;-63
2021/12/05 05:10:28;;;;;;;60.58;40.75;;;128.10;2252.80;;;;;;5012729;28;20033;-60
2021/12/05 05:12:55;;;;;;;100.60;50.95;;;128.30;2252.80;;;;;;5012976;28;20148;-61
2021/12/05 05:15:24;;;;;;;75.05;40.70;;;128.10;2252.80;;;;;;5012688;28;20041;-63
2021/12/05 05:17:52;;;;;;;56.05;30.73;;;128.40;2252.80;;;;;;5012663;28;20460;-64
2021/12/05 05:23:19;;;;;;;63.30;39.88;;;128.50;2252.80;;;;;;5012072;28;20046;-63
2021/12/05 05:44:33;;;;;;;45.03;28.15;;;128.60;2252.80;;;;;;5012400;28;20060;-64
2021/12/05 05:49:59;;;;;;;38.47;24.20;;;128.70;2252.80;;;;;;4970878;28;20077;-65
2021/12/05 05:52:27;;;;;;;30.33;20.70;;;128.80;2252.80;;;;;;4970655;28;20038;-58
2021/12/05 05:54:55;;;;;;;52.72;28.52;;;128.80;2252.80;;;;;;4970985;28;20116;-65
2021/12/05 05:57:27;;;;;;;27.48;16.70;;;128.90;2252.80;;;;;;4970726;28;20043;-64
2021/12/05 06:05:05;;;;;;;22.20;16.55;;;128.50;2252.80;;;;;;4970571;28;20097;-63
2021/12/05 06:07:31;;;;;;;67.78;44.45;;;128.50;2252.80;;;;;;4970638;28;20034;-65
2021/12/05 06:09:56;;;;;;;66.07;41.50;;;128.60;2252.80;;;;;;4970543;28;20034;-65
2021/12/05 06:12:22;;;;;;;59.00;41.03;;;128.60;2252.80;;;;;;4970521;28;20421;-65
2021/12/05 06:14:48;;;;;;;58.10;37.10;;;128.70;2252.80;;;;;;4970212;28;20027;-68
2021/12/05 06:17:17;;;;;;;55.72;35.35;;;153.60;2252.80;;;;;;4970472;28;20039;-68
2021/12/05 06:19:43;;;;;;;55.70;34.25;;;153.70;2252.80;;;;;;4970332;28;20092;-69
2021/12/05 06:22:09;;;;;;;109.20;64.75;;;153.70;2252.80;;;;;;4970009;28;20026;-68
2021/12/05 06:24:35;;;;;;;65.55;41.70;;;153.70;2252.80;;;;;;5001389;28;20133;-66
2021/12/05 06:27:01;;;;;;;104.93;67.50;;;128.70;2252.80;;;;;;4993485;28;20053;-66
2021/12/05 06:29:33;;;;;;;142.98;90.45;;;128.70;2252.80;;;;;;5011212;28;20044;-66
2021/12/05 06:42:49;;;;;;;103.68;63.28;;;153.60;2252.80;;;;;;5011272;28;20380;-65
2021/12/05 06:47:59;;;;;;;93.10;57.53;;;153.80;2252.80;;;;;;5010768;28;20239;-67
2021/12/05 06:50:25;;;;;;;78.22;50.38;;;154.00;2252.80;;;;;;5011108;28;20105;-66
2021/12/05 06:52:51;;;;;;;105.18;67.22;;;154.10;2252.80;;;;;;5010906;28;20029;-67
2021/12/05 06:55:18;;;;;;;173.90;121.45;;;153.90;2252.80;;;;;;5010767;28;20395;-68
2021/12/05 06:57:45;;;;;;;139.80;94.35;;;128.90;2252.80;;;;;;5010742;28;20029;-67
2021/12/05 07:00:19;;;;;;;104.68;66.32;;;128.40;2252.80;;;;;;4993390;28;20479;-67
2021/12/05 07:02:45;;;;;;;154.95;100.30;;;128.60;2252.80;;;;;;5010876;28;20376;-66
2021/12/05 07:07:48;;;;;;;118.60;78.85;;;128.80;2252.80;;;;;;5010408;28;20511;-66
2021/12/05 07:10:16;;;;;;;127.65;85.28;;;153.70;2252.80;;;;;;5010625;28;20022;-63
2021/12/05 07:42:41;;;;;;;146.07;92.72;;;128.90;2252.80;;;;;;4968976;28;20049;-62
2021/12/05 07:45:09;;;;;;;119.80;74.03;;;153.70;2252.80;;;;;;4968678;28;20460;-55
2021/12/05 07:47:38;;;;;;;126.65;83.03;;;153.90;2252.80;;;;;;4969027;28;20031;-57
2021/12/05 07:50:08;;;;;;;81.47;55.22;;;154.10;2252.80;;;;;;4969176;28;20046;-61
2021/12/05 07:52:39;;;;;;;145.27;90.43;;;154.10;2252.80;;;;;;4969082;28;20042;-62
2021/12/05 07:55:15;;;;;;;194.38;127.13;;;153.80;2252.80;;;;;;4969147;28;20031;-59
2021/12/05 08:00:29;;;;;;;316.50;219.55;;;154.10;2252.80;;;;;;4972496;28;20023;-62
2021/12/05 08:16:40;;;;;;;163.80;102.60;;;154.20;2252.80;;;;;;5013303;28;20033;-58
2021/12/05 08:19:06;;;;;;;320.08;203.77;;;154.10;2252.80;;;;;;5013678;28;20034;-57
2021/12/05 08:21:32;;;;;;;366.10;249.30;;;154.10;2252.80;;;;;;5013743;28;20371;-66
2021/12/05 08:23:58;;;;;;;314.10;213.70;;;154.20;2252.80;;;;;;5013519;28;20053;-65
2021/12/05 08:26:31;;;;;;;189.20;121.88;;;154.10;2252.80;;;;;;5013893;28;20026;-62
2021/12/05 08:34:17;;;;;;;204.20;135.40;;;154.00;2252.80;;;;;;5012856;28;20026;-64
2021/12/05 09:26:21;;;;;;;142.93;95.35;;;179.40;2252.80;;;;;;5012635;28;20045;-64
2021/12/05 09:38:30;;;;;;;196.57;133.60;;;179.40;2252.80;;;;;;5012343;28;20029;-63
2021/12/05 10:02:38;;;;;;;192.75;131.07;;;179.70;2252.80;;;;;;5014375;28;20032;-61
2021/12/05 10:11:05;;;;;;;235.45;164.30;;;179.40;2252.80;;;;;;5014768;28;20059;-67
2021/12/05 10:16:27;;;;;;;131.98;86.18;;;179.40;2252.80;;;;;;5015038;28;20037;-64
2021/12/05 10:37:57;;;;;;;97.63;68.22;;;179.90;2252.80;;;;;;5030954;28;20502;-63
2021/12/05 10:40:34;;;;;;;149.87;96.23;;;179.80;2252.80;;;;;;5030914;28;20026;-63
2021/12/05 10:43:01;;;;;;;153.20;96.60;;;179.80;2252.80;;;;;;5030724;28;20029;-63
2021/12/05 10:45:41;;;;;;;218.30;130.07;;;179.80;2252.80;;;;;;5030761;28;20029;-63
2021/12/05 10:48:18;;;;;;;145.40;94.18;;;180.00;2252.80;;;;;;5030418;28;20025;-63
2021/12/05 10:51:06;;;;;;;163.90;108.63;;;204.90;2252.80;;;;;;5030535;28;20065;-64
2021/12/05 10:53:44;;;;;;;138.27;94.18;;;204.90;2252.80;;;;;;5030558;28;20033;-65
2021/12/05 10:56:27;;;;;;;150.38;108.68;;;205.00;2252.80;;;;;;5030268;28;20113;-64
2021/12/05 10:59:13;;;;;;;175.97;123.17;;;205.10;2252.80;;;;;;5030257;28;20025;-65
2021/12/05 11:01:46;;;;;;;119.47;82.75;;;205.10;2252.80;;;;;;5029722;28;20263;-59
2021/12/05 11:04:20;;;;;;;128.00;86.90;;;205.20;2252.80;;;;;;5030547;28;20025;-63
2021/12/05 11:06:57;;;;;;;136.93;96.75;;;205.40;2252.80;;;;;;5030201;28;20044;-62
2021/12/05 11:09:28;;;;;;;142.68;96.38;;;205.40;2252.80;;;;;;5030266;28;20052;-63
2021/12/05 11:12:05;;;;;;;188.95;125.55;;;205.50;2252.80;;;;;;5030420;28;20061;-64
2021/12/05 11:14:39;;;;;;;142.60;95.55;;;205.50;2252.80;;;;;;5012979;28;20033;-63
2021/12/05 11:17:09;;;;;;;157.63;110.63;;;205.10;2252.80;;;;;;5030189;28;20025;-57
2021/12/05 11:19:40;;;;;;;173.00;118.03;;;205.00;2252.80;;;;;;5030332;28;20094;-61
2021/12/05 11:22:21;;;;;;;159.10;112.47;;;204.90;2252.80;;;;;;5029764;28;20109;-60
2021/12/05 11:24:56;;;;;;;199.00;134.80;;;205.20;2252.80;;;;;;5012289;28;20080;-56
2021/12/05 11:27:35;;;;;;;190.00;133.35;;;205.30;2252.80;;;;;;5045247;28;20022;-64
2021/12/05 11:30:13;;;;;;;173.15;121.10;;;205.50;2252.80;;;;;;5030354;28;20441;-57
2021/12/05 11:33:03;;;;;;;139.15;94.25;;;205.40;2252.80;;;;;;5029660;28;20021;-61
2021/12/05 11:35:55;;;;;;;138.35;95.13;;;205.40;2252.80;;;;;;5029865;28;20471;-63
2021/12/05 11:38:26;;;;;;;164.70;111.53;;;205.40;2252.80;;;;;;5027122;28;20124;-63
2021/12/05 11:41:07;;;;;;;130.95;82.30;;;205.50;2252.80;;;;;;5030007;28;20025;-63
2021/12/05 11:43:52;;;;;;;149.18;96.97;;;205.40;2252.80;;;;;;5027611;28;20356;-60
2021/12/05 11:46:31;;;;;;;120.93;75.30;;;205.50;2252.80;;;;;;5028127;28;20425;-58
2021/12/05 11:49:21;;;;;;;130.18;85.60;;;205.60;2252.80;;;;;;5024573;28;20492;-60
2021/12/05 11:51:58;;;;;;;146.35;96.68;;;205.70;2252.80;;;;;;5016915;28;20468;-55
2021/12/05 11:54:28;;;;;;;179.15;120.25;;;230.50;2252.80;;;;;;5016834;28;20103;-59
2021/12/05 11:57:08;;;;;;;182.27;124.55;;;230.50;2252.80;;;;;;5016046;28;20049;-55
2021/12/05 11:59:50;;;;;;;223.57;160.45;;;205.70;2252.80;;;;;;5016610;28;20026;-63
2021/12/05 12:02:17;;;;;;;244.18;170.75;;;205.70;2252.80;;;;;;5017757;28;20087;-63
2021/12/05 12:05:05;;;;;;;236.75;173.32;;;205.60;2252.80;;;;;;5016562;28;20108;-60
2021/12/05 12:07:48;;;;;;;279.92;205.00;;;230.40;2252.80;;;;;;5017671;28;20349;-63
2021/12/05 12:10:15;;;;;;;311.25;238.57;;;230.50;2252.80;;;;;;5017995;28;20069;-64
2021/12/05 12:12:44;;;;;;;281.40;197.70;;;205.70;2252.80;;;;;;5016028;28;20022;-63
2021/12/05 12:15:11;;;;;;;321.40;226.80;;;205.70;2252.80;;;;;;5016549;28;20033;-61
2021/12/05 12:17:37;;;;;;;316.58;231.73;;;205.60;2252.80;;;;;;5017726;28;20029;-59
2021/12/05 12:20:05;;;;;;;355.00;254.60;;;230.50;2252.80;;;;;;5011885;28;20026;-64
2021/12/05 12:22:31;;;;;;;326.85;233.30;;;230.50;2252.80;;;;;;5015820;28;20387;-61
2021/12/05 12:25:00;;;;;;;434.38;320.88;;;230.60;2252.80;;;;;;5017902;28;20036;-58
2021/12/05 12:27:27;;;;;;;447.90;331.20;;;230.70;2252.80;;;;;;5016291;28;20030;-62
2021/12/05 12:29:57;;;;;;;193.13;138.65;;;230.80;2252.80;;;;;;5017714;28;20499;-55
2021/12/05 12:32:37;;;;;;;248.45;167.80;;;230.70;2252.80;;;;;;5017271;28;20040;-65
2021/12/05 12:35:10;;;;;;;294.75;205.70;;;230.80;2252.80;;;;;;5014942;28;20037;-66
2021/12/05 12:38:00;;;;;;;295.98;210.40;;;230.50;2252.80;;;;;;5015015;28;20033;-57
2021/12/05 12:40:45;;;;;;;309.60;228.65;;;230.50;2252.80;;;;;;5016490;28;20361;-62
2021/12/05 12:43:47;;;;;;;312.23;227.00;;;230.60;2252.80;;;;;;5016932;28;20028;-63
2021/12/05 12:46:30;;;;;;;363.85;270.17;;;230.70;2252.80;;;;;;5020947;28;20017;-64
2021/12/05 12:49:14;;;;;;;405.73;293.30;;;230.70;2252.80;;;;;;5020561;28;20041;-59
2021/12/05 12:51:52;;;;;;;393.45;286.85;;;230.60;2252.80;;;;;;5021380;28;20371;-62
2021/12/05 12:54:35;;;;;;;390.70;283.73;;;230.60;2252.80;;;;;;5020810;28;20041;-58
2021/12/05 12:57:05;;;;;;;364.52;271.73;;;230.70;2252.80;;;;;;5021304;28;20104;-66
2021/12/05 12:59:50;;;;;;;343.63;251.75;;;230.80;2252.80;;;;;;5020206;28;20029;-60
2021/12/05 13:10:02;;;;;;;278.58;204.40;;;230.60;2252.80;;;;;;5019396;28;20037;-63
2021/12/05 13:12:40;;;;;;;213.38;151.05;;;230.50;2252.80;;;;;;5019559;28;20025;-60
2021/12/05 13:15:11;;;;;;;161.23;114.70;;;230.60;2252.80;;;;;;5018840;28;20037;-59
2021/12/05 13:18:19;;;;;;;132.75;94.72;;;230.50;2252.80;;;;;;5018501;28;20041;-64
2021/12/05 13:20:56;;;;;;;135.13;98.68;;;230.70;2252.80;;;;;;5018866;28;20042;-61
2021/12/05 13:23:44;;;;;;;112.68;82.93;;;230.70;2252.80;;;;;;5018644;28;20080;-61
2021/12/05 13:26:19;;;;;;;116.20;85.97;;;230.80;2252.80;;;;;;5012345;28;20038;-66
2021/12/05 13:28:51;;;;;;;134.65;98.13;;;230.80;2252.80;;;;;;5010710;28;20542;-61
2021/12/05 13:31:29;;;;;;;161.93;116.18;;;230.80;2252.80;;;;;;5028589;28;20033;-61
2021/12/05 13:34:16;;;;;;;139.65;100.53;;;230.80;2252.80;;;;;;5022063;28;20037;-62
2021/12/05 13:36:44;;;;;;;157.02;110.35;;;230.80;2252.80;;;;;;5019758;28;20036;-56
2021/12/05 13:39:40;;;;;;;149.32;103.80;;;230.70;2252.80;;;;;;5029499;28;20030;-66
2021/12/05 13:42:23;;;;;;;119.88;83.50;;;230.70;2252.80;;;;;;5023948;28;20665;-66
2021/12/05 13:45:03;;;;;;;105.30;68.10;;;230.80;2252.80;;;;;;5018352;28;20068;-64
2021/12/05 13:47:52;;;;;;;84.82;56.70;;;230.70;2252.80;;;;;;5011760;28;20069;-59
2021/12/05 13:50:18;;;;;;;94.80;84.80;;;230.80;2252.80;;;;;;4999792;28;20038;-64
2021/12/05 13:52:48;;;;;;;66.82;45.92;;;230.70;2252.80;;;;;;5011935;28;20037;-58
2021/12/05 13:55:49;;;;;;;56.90;40.83;;;230.70;2252.80;;;;;;5012039;28;20028;-61
2021/12/05 13:58:20;;;;;;;45.00;30.92;;;230.60;2252.80;;;;;;5011536;28;20369;-59
2021/12/05 14:00:55;;;;;;;39.08;26.52;;;230.80;2252.80;;;;;;5011813;28;20026;-62
2021/12/05 14:03:46;;;;;;;36.65;26.50;;;230.70;2252.80;;;;;;5011867;28;20037;-65
2021/12/05 14:06:47;;;;;;;179.25;121.15;;;230.70;2252.80;;;;;;5011893;28;20036;-56
2021/12/05 14:09:36;;;;;;;57.40;37.22;;;230.60;2252.80;;;;;;5027038;28;20037;-56
2021/12/05 14:12:30;;;;;;;64.25;40.63;;;230.70;2252.80;;;;;;5029756;28;20543;-59
2021/12/05 14:15:05;;;;;;;75.65;45.80;;;230.70;2252.80;;;;;;5029716;28;20052;-57
2021/12/05 14:17:34;;;;;;;46.70;31.17;;;230.80;2252.80;;;;;;5029995;28;20076;-66
2021/12/05 14:20:07;;;;;;;50.55;35.15;;;230.80;2252.80;;;;;;5029682;28;20108;-64
2021/12/05 14:22:35;;;;;;;41.22;28.80;;;230.60;2252.80;;;;;;5029507;28;20113;-65
2021/12/05 14:25:05;;;;;;;345.75;214.77;;;230.60;2252.80;;;;;;5029118;28;20045;-64
2021/12/05 14:27:35;;;;;;;402.15;261.10;;;230.60;2252.80;;;;;;5029543;28;20494;-63
2021/12/05 14:30:06;;;;;;;212.60;135.20;;;230.50;2252.80;;;;;;5029456;28;20053;-65
2021/12/05 14:32:35;;;;;;;168.63;118.60;;;230.60;2252.80;;;;;;5029390;28;20057;-60
2021/12/05 14:35:38;;;;;;;219.63;162.38;;;230.60;2252.80;;;;;;5029528;28;20068;-65
2021/12/05 14:38:06;;;;;;;234.80;177.70;;;230.70;2252.80;;;;;;5029169;28;20108;-64
2021/12/05 14:40:34;;;;;;;165.80;100.32;;;230.60;2252.80;;;;;;5029488;28;20025;-65
2021/12/05 14:43:04;;;;;;;131.13;104.68;;;230.60;2252.80;;;;;;5028959;28;20067;-65
2021/12/05 14:45:32;;;;;;;144.68;108.80;;;230.50;2252.80;;;;;;5029197;28;20701;-61
2021/12/05 14:48:02;;;;;;;172.20;123.03;;;230.50;2252.80;;;;;;5028643;28;20065;-65
2021/12/05 14:50:31;;;;;;;225.18;150.63;;;230.60;2252.80;;;;;;5029258;28;20446;-65
2021/12/05 14:53:00;;;;;;;151.77;116.28;;;230.50;2252.80;;;;;;5028504;28;20080;-57
2021/12/05 14:55:28;;;;;;;189.32;140.32;;;205.70;2252.80;;;;;;5028854;28;20064;-59
2021/12/05 14:57:57;;;;;;;191.95;146.65;;;230.40;2252.80;;;;;;5028859;28;20021;-66
2021/12/05 15:00:32;;;;;;;267.90;180.05;;;205.70;2252.80;;;;;;5028826;28;20407;-66
2021/12/05 15:03:17;;;;;;;174.52;122.10;;;205.70;2252.80;;;;;;5028977;28;20021;-57
2021/12/05 15:05:52;;;;;;;166.20;124.93;;;205.70;2252.80;;;;;;5028624;28;20483;-65
2021/12/05 15:08:22;;;;;;;208.70;152.85;;;205.70;2252.80;;;;;;5027774;28;20037;-64
2021/12/05 15:10:54;;;;;;;187.68;136.30;;;205.70;2252.80;;;;;;5028557;28;20028;-65
2021/12/05 15:13:20;;;;;;;143.82;109.95;;;205.60;2252.80;;;;;;5028457;28;20529;-65
2021/12/05 15:15:46;;;;;;;128.55;93.65;;;205.30;2252.80;;;;;;5028841;28;20049;-65
2021/12/05 15:18:32;;;;;;;132.80;98.28;;;205.20;2252.80;;;;;;5028361;28;20034;-66
2021/12/05 15:20:59;;;;;;;156.95;116.60;;;205.40;2252.80;;;;;;5028597;28;20033;-65
2021/12/05 15:23:30;;;;;;;133.00;95.47;;;205.10;2252.80;;;;;;5028518;28;20061;-63
2021/12/05 15:25:59;;;;;;;167.98;125.28;;;205.00;2252.80;;;;;;5028760;28;20033;-60
2021/12/05 15:28:25;;;;;;;163.93;112.03;;;205.00;2252.80;;;;;;5028676;28;20403;-64
2021/12/05 15:30:52;;;;;;;102.43;74.90;;;204.90;2252.80;;;;;;5028012;28;20036;-65
2021/12/05 15:33:21;;;;;;;86.63;64.45;;;204.90;2252.80;;;;;;5028380;28;20071;-66
2021/12/05 15:35:49;;;;;;;87.22;59.50;;;180.10;2252.80;;;;;;5028442;28;20560;-56
2021/12/05 15:38:21;;;;;;;85.30;58.10;;;180.10;2252.80;;;;;;5028513;28;20422;-57
2021/12/05 15:40:48;;;;;;;83.05;56.72;;;205.00;2252.80;;;;;;5010366;28;20503;-58
2021/12/05 15:43:19;;;;;;;82.07;56.33;;;205.10;2252.80;;;;;;5028249;28;20029;-55
2021/12/05 15:45:47;;;;;;;90.00;59.20;;;204.90;2252.80;;;;;;5028443;28;20152;-55
2021/12/05 15:48:26;;;;;;;98.50;63.67;;;204.90;2252.80;;;;;;5028505;28;20411;-55
2021/12/05 15:50:53;;;;;;;98.03;63.22;;;205.00;2252.80;;;;;;5028392;28;20026;-55
2021/12/05 15:53:20;;;;;;;106.80;72.25;;;205.10;2252.80;;;;;;5028014;28;20037;-55
2021/12/05 15:55:51;;;;;;;103.40;71.90;;;205.20;2252.80;;;;;;5028468;28;20029;-55
2021/12/05 15:58:45;;;;;;;189.48;133.77;;;205.20;2252.80;;;;;;5027619;28;20044;-55
2021/12/05 16:01:16;;;;;;;140.55;94.35;;;205.30;2252.80;;;;;;5028234;28;20467;-56
2021/12/05 16:03:46;;;;;;;175.52;118.47;;;205.40;2252.80;;;;;;5028261;28;20037;-55
2021/12/05 16:06:14;;;;;;;150.52;101.90;;;205.30;2252.80;;;;;;5028247;28;20025;-55
2021/12/05 16:08:41;;;;;;;160.80;110.30;;;205.30;2252.80;;;;;;5028034;28;20091;-55
2021/12/05 16:11:17;;;;;;;162.63;108.90;;;205.30;2252.80;;;;;;5027775;28;20022;-56
2021/12/05 16:13:49;;;;;;;135.77;97.43;;;205.20;2252.80;;;;;;5028365;28;20029;-63
2021/12/05 16:16:14;;;;;;;138.02;98.18;;;205.30;2252.80;;;;;;5016647;28;20809;-65
2021/12/05 16:18:44;;;;;;;126.70;88.93;;;205.20;2252.80;;;;;;5014010;28;20029;-62
2021/12/05 16:21:18;;;;;;;167.85;117.72;;;205.10;2252.80;;;;;;5017496;28;20064;-62
2021/12/05 16:23:45;;;;;;;158.00;109.25;;;205.10;2252.80;;;;;;5019177;28;20132;-65
2021/12/05 16:26:15;;;;;;;137.48;95.90;;;205.10;2252.80;;;;;;5022326;28;20037;-64
2021/12/05 16:28:53;;;;;;;115.93;83.78;;;205.10;2252.80;;;;;;5014311;28;20037;-64
2021/12/05 16:31:25;;;;;;;208.05;136.02;;;205.20;2252.80;;;;;;5015067;28;20041;-62
2021/12/05 16:34:17;;;;;;;215.63;155.55;;;205.30;2252.80;;;;;;5019568;28;20030;-66
2021/12/05 16:36:52;;;;;;;450.55;282.08;;;205.30;2252.80;;;;;;5020046;28;20576;-66
2021/12/05 16:39:31;;;;;;;346.33;216.55;;;205.50;2252.80;;;;;;5015934;28;20472;-63
2021/12/05 16:42:09;;;;;;;199.50;141.20;;;205.30;2252.80;;;;;;5010793;28;20080;-63
2021/12/05 16:44:39;;;;;;;140.68;110.10;;;205.20;2252.80;;;;;;5010917;28;20458;-66
2021/12/05 16:47:20;;;;;;;367.45;242.00;;;205.20;2252.80;;;;;;5011668;28;20490;-57
2021/12/05 16:49:48;;;;;;;237.68;162.18;;;205.10;2252.80;;;;;;5010686;28;20045;-65
2021/12/05 16:52:20;;;;;;;208.73;141.27;;;205.10;2252.80;;;;;;5013614;28;20037;-61
2021/12/05 16:55:04;;;;;;;215.02;152.23;;;205.20;2252.80;;;;;;5010693;28;20041;-57
2021/12/05 16:57:40;;;;;;;311.20;211.55;;;205.20;2252.80;;;;;;5010431;28;20038;-62
2021/12/05 17:00:13;;;;;;;182.70;129.63;;;205.10;2252.80;;;;;;5010288;28;20058;-62
2021/12/05 17:02:51;;;;;;;168.98;119.43;;;205.10;2252.80;;;;;;5010909;28;20534;-59
2021/12/05 17:05:23;;;;;;;298.35;208.70;;;205.10;2252.80;;;;;;5011391;28;20033;-64
2021/12/05 17:08:10;;;;;;;362.20;253.75;;;205.10;2252.80;;;;;;5022677;28;20033;-67
2021/12/05 17:10:53;;;;;;;346.40;249.43;;;204.90;2252.80;;;;;;5029965;28;20175;-63
2021/12/05 17:13:31;;;;;;;;;;;204.90;2252.80;;;;;;5030342;28;20723;-59
2021/12/05 17:16:00;;;;;;;215.93;153.55;;;204.90;2252.80;;;;;;5030291;28;20058;-61
2021/12/05 17:18:58;;;;;;;227.40;155.48;;;204.90;2252.80;;;;;;5030598;28;20101;-58
2021/12/05 17:21:33;;;;;;;428.60;305.38;;;180.10;2252.80;;;;;;5030536;28;20021;-66
2021/12/05 17:24:06;;;;;;;648.67;498.05;;;180.10;2252.80;;;;;;5030477;28;20050;-60
2021/12/05 17:26:36;;;;;;;642.25;498.48;;;180.00;2252.80;;;;;;5030744;28;20111;-56
2021/12/05 17:29:04;;;;;;;601.97;464.33;;;179.90;2252.80;;;;;;5017905;28;20119;-62
2021/12/05 17:31:41;;;;;;;558.63;434.08;;;180.00;2252.80;;;;;;5018390;28;20033;-67
2021/12/05 17:34:10;;;;;;;552.35;419.75;;;180.00;2252.80;;;;;;5019005;28;20439;-64
2021/12/05 17:36:43;;;;;;;520.40;403.13;;;180.10;2252.80;;;;;;5018582;28;20036;-61
2021/12/05 17:39:13;;;;;;;519.88;400.05;;;180.10;2252.80;;;;;;5019686;28;20033;-63
2021/12/05 17:41:41;;;;;;;527.88;409.98;;;180.10;2252.80;;;;;;5019515;28;20058;-64
2021/12/05 17:44:09;;;;;;;507.73;384.13;;;180.10;2252.80;;;;;;5035881;28;20021;-65
2021/12/05 17:46:44;;;;;;;501.25;383.60;;;204.80;2252.80;;;;;;5018839;28;20036;-56
2021/12/05 17:49:12;;;;;;;520.53;395.77;;;204.90;2252.80;;;;;;5003041;28;20033;-62
2021/12/05 17:51:40;;;;;;;530.25;409.65;;;204.90;2252.80;;;;;;5001308;28;20084;-65
2021/12/05 17:54:12;;;;;;;532.70;417.60;;;204.80;2252.80;;;;;;5017171;28;20041;-58
2021/12/05 17:56:42;;;;;;;495.48;383.45;;;180.10;2252.80;;;;;;5018622;28;20048;-63
2021/12/05 17:59:13;;;;;;;532.10;395.40;;;204.90;2252.80;;;;;;5019353;28;20025;-58
2021/12/05 18:04:28;;;;;;;543.00;402.85;;;204.90;2252.80;;;;;;5019852;28;20557;-61
2021/12/05 18:06:54;;;;;;;481.13;354.17;;;205.00;2252.80;;;;;;5019648;28;20789;-63